Portada
METAR-TAF:

METAR-TAF

Aeroports :

Payam

Karaj, Iran

latitud: 35-46-34N, longitud: 050-49-36E, altitud: 1271 m

Observació

L'informe es va fer fa 41 minuts, a les 08:00 UTC
Vent 6 kt del Oest/Nord-Oest
Temperatura 13°C
Humitat 33%
Pressió 1025 hPa
Visibilitat: 6000 m

METAR: OIIP 120800Z 29006KT 6000 NSC 13/M03 Q1024 A3027

Hora: 12:11 (08:41 UTC)


TAF: manca

Observacions i pronòstics meteorològics de més de 4000 aeroports (METAR i TAF).

Les estacions disponibles són els punts grocs i vermells al mapa.

Posi el ratolí al punt desitjat per veure el nom de l'estació.

Feu clic per veure les observacions i els pronòstics meteorològics.

Per canviar el mapa: feu clic els botons verds amb una creu de color negre per apropar; al botó verd amb un guió per allunyar la imatge; o en les fletxes verdes per a mapes adjacents.


METAR-TAF: